Time;durP1;ratioP1;P1;durP2;ratioP2;P2;SDS_P1;SDS_P2;PMS_P1;PMS_P2;Temp;Humidity;BMP_temperature;BMP_pressure;BME280_temperature;BME280_humidity;BME280_pressure;Samples;Min_cycle;Max_cycle;Signal;HPM_P1;HPM_P2
2023/07/12 00:01:18;;;;;;;0.10;0.10;;;21.30;99.90;;;;;;5039159;28;20017;-74
2023/07/12 00:03:44;;;;;;;0.57;0.57;;;20.90;99.90;;;;;;5040462;28;20108;-75
2023/07/12 00:06:34;;;;;;;0.10;0.10;;;21.10;99.90;;;;;;5040276;28;20151;-78
2023/07/12 00:08:59;;;;;;;0.10;0.10;;;21.10;99.90;;;;;;5039335;28;20021;-80
2023/07/12 00:11:25;;;;;;;0.10;0.10;;;21.40;99.90;;;;;;5040314;28;20518;-81
2023/07/12 00:13:54;;;;;;;0.25;0.25;;;21.50;99.90;;;;;;5040291;28;20213;-74
2023/07/12 00:16:29;;;;;;;0.20;0.20;;;21.10;99.90;;;;;;5040534;28;20028;-74
2023/07/12 00:18:56;;;;;;;1.38;1.38;;;21.00;99.90;;;;;;5040271;28;20025;-80
2023/07/12 00:21:24;;;;;;;0.20;0.20;;;21.00;99.90;;;;;;5040195;28;20210;-80
2023/07/12 00:23:56;;;;;;;1.75;1.65;;;20.90;99.90;;;;;;5039923;28;20035;-73
2023/07/12 00:26:26;;;;;;;0.10;0.10;;;20.50;99.90;;;;;;5040121;28;20017;-74
2023/07/12 00:28:54;;;;;;;0.05;0.05;;;20.30;99.90;;;;;;5039517;28;20522;-74
2023/07/12 00:31:19;;;;;;;0.10;0.10;;;20.10;99.90;;;;;;5038732;28;20041;-74
2023/07/12 00:33:45;;;;;;;1.77;1.55;;;19.90;99.90;;;;;;5040075;28;20039;-74
2023/07/12 00:36:23;;;;;;;0.73;0.73;;;19.70;99.90;;;;;;5039500;28;20032;-75
2023/07/12 00:38:50;;;;;;;0.08;0.08;;;19.70;99.90;;;;;;5039657;28;20021;-82
2023/07/12 00:41:48;;;;;;;1.45;1.45;;;19.80;99.90;;;;;;5039316;28;20033;-81
2023/07/12 00:44:21;;;;;;;0.10;0.10;;;19.70;99.90;;;;;;4996862;28;20611;-79
2023/07/12 00:46:53;;;;;;;0.30;0.30;;;23.10;99.90;;;;;;4996880;28;20069;-77
2023/07/12 00:49:19;;;;;;;0.28;0.28;;;19.50;99.90;;;;;;4996423;28;20620;-84
2023/07/12 00:51:59;;;;;;;0.10;0.10;;;19.40;99.90;;;;;;4996675;28;20018;-78
2023/07/12 00:54:47;;;;;;;0.10;0.10;;;19.50;99.90;;;;;;4996631;28;20708;-77
2023/07/12 00:57:25;;;;;;;0.20;0.20;;;19.50;99.90;;;;;;4996450;28;20037;-75
2023/07/12 01:00:10;;;;;;;0.10;0.10;;;20.20;99.90;;;;;;4979049;28;20129;-81
2023/07/12 01:02:40;;;;;;;0.03;0.03;;;19.30;99.90;;;;;;4979902;28;20034;-78
2023/07/12 01:05:06;;;;;;;0.35;0.35;;;19.50;99.90;;;;;;4996834;28;20021;-74
2023/07/12 01:07:34;;;;;;;0.17;0.17;;;19.30;99.90;;;;;;4997577;28;20582;-76
2023/07/12 01:10:00;;;;;;;0.10;0.10;;;19.30;99.90;;;;;;4980123;28;20555;-78
2023/07/12 01:12:26;;;;;;;12.40;2.47;;;19.60;99.90;;;;;;4996841;28;20097;-82
2023/07/12 01:14:52;;;;;;;0.00;0.00;;;19.80;99.90;;;;;;4980023;28;20060;-75
2023/07/12 01:17:19;;;;;;;0.03;0.03;;;19.30;99.90;;;;;;4996611;28;20432;-74
2023/07/12 01:19:44;;;;;;;3.90;3.70;;;19.70;99.90;;;;;;4995881;28;20034;-78
2023/07/12 01:22:10;;;;;;;0.10;0.10;;;19.30;99.90;;;;;;5031907;28;20033;-74
2023/07/12 01:24:36;;;;;;;0.10;0.10;;;;;;;;;;5038844;28;20013;-83
2023/07/12 01:27:18;;;;;;;0.10;0.10;;;19.20;99.90;;;;;;5038745;28;20048;-79
2023/07/12 01:29:45;;;;;;;3.47;2.28;;;19.30;99.90;;;;;;5039696;28;20021;-74
2023/07/12 01:32:12;;;;;;;0.15;0.15;;;18.90;99.90;;;;;;5038805;28;20021;-80
2023/07/12 01:34:37;;;;;;;0.10;0.10;;;19.20;99.90;;;;;;5037963;28;20021;-74
2023/07/12 01:37:05;;;;;;;0.10;0.10;;;19.00;99.90;;;;;;5039542;28;20048;-84
2023/07/12 01:39:33;;;;;;;0.35;0.35;;;18.90;99.90;;;;;;5038794;28;20033;-78
2023/07/12 01:41:58;;;;;;;0.25;0.25;;;19.60;99.90;;;;;;5038504;28;20104;-74
2023/07/12 01:44:25;;;;;;;0.10;0.10;;;;;;;;;;5038770;28;20096;-74
2023/07/12 01:46:50;;;;;;;0.00;0.00;;;18.70;99.90;;;;;;5038378;28;20028;-75
2023/07/12 01:49:16;;;;;;;0.10;0.10;;;18.70;99.90;;;;;;5038352;28;20021;-74
2023/07/12 01:51:42;;;;;;;0.10;0.10;;;18.90;99.90;;;;;;5038215;28;20202;-74
2023/07/12 01:54:08;;;;;;;0.10;0.10;;;19.00;99.90;;;;;;5038561;28;20691;-88
2023/07/12 01:56:34;;;;;;;0.20;0.20;;;19.00;99.90;;;;;;5037290;28;20017;-75
2023/07/12 01:58:59;;;;;;;0.10;0.10;;;19.00;99.90;;;;;;5037958;28;20044;-76
2023/07/12 02:01:28;;;;;;;0.10;0.10;;;18.90;99.90;;;;;;5038804;28;20025;-75
2023/07/12 02:03:54;;;;;;;0.95;0.95;;;17.50;99.90;;;;;;5038135;28;20291;-82
2023/07/12 02:06:19;;;;;;;0.10;0.10;;;18.80;99.90;;;;;;5038210;28;20472;-77
2023/07/12 02:08:45;;;;;;;0.17;0.17;;;18.80;99.90;;;;;;5038584;28;20028;-81
2023/07/12 02:11:11;;;;;;;0.10;0.10;;;;;;;;;;5037778;28;20031;-85
2023/07/12 02:13:37;;;;;;;0.10;0.10;;;18.90;99.90;;;;;;5037691;28;20028;-76
2023/07/12 02:16:03;;;;;;;0.10;0.10;;;19.10;99.90;;;;;;5037764;28;20013;-76
2023/07/12 02:18:29;;;;;;;0.10;0.10;;;18.90;99.90;;;;;;5037959;28;20108;-76
2023/07/12 02:20:57;;;;;;;1.58;1.55;;;19.00;99.90;;;;;;5044249;28;20711;-74
2023/07/12 02:23:23;;;;;;;0.10;0.10;;;18.80;99.90;;;;;;5043394;28;20017;-75
2023/07/12 02:25:49;;;;;;;0.10;0.10;;;18.60;99.90;;;;;;5040442;28;20086;-76
2023/07/12 02:28:15;;;;;;;0.20;0.20;;;18.60;99.90;;;;;;5041096;28;20032;-80
2023/07/12 02:30:44;;;;;;;0.10;0.10;;;18.60;99.90;;;;;;5037841;28;20033;-89
2023/07/12 02:33:10;;;;;;;0.10;0.10;;;19.80;99.90;;;;;;5042795;28;20123;-74
2023/07/12 02:35:39;;;;;;;0.10;0.10;;;18.50;99.90;;;;;;5041948;28;20024;-75
2023/07/12 02:38:05;;;;;;;0.32;0.32;;;18.50;99.90;;;;;;5038980;28;20052;-75
2023/07/12 02:40:45;;;;;;;0.10;0.10;;;18.50;99.90;;;;;;5038034;28;20092;-83
2023/07/12 02:43:25;;;;;;;0.10;0.10;;;18.50;99.90;;;;;;5038562;28;20028;-82
2023/07/12 02:45:50;;;;;;;0.15;0.15;;;18.30;99.90;;;;;;5037335;28;20036;-79
2023/07/12 02:48:16;;;;;;;1.30;1.30;;;18.50;99.90;;;;;;5034768;28;20029;-77
2023/07/12 02:50:42;;;;;;;0.10;0.10;;;16.70;99.90;;;;;;5034381;28;20059;-75
2023/07/12 02:53:18;;;;;;;0.70;0.70;;;19.50;99.90;;;;;;5018214;28;20048;-74
2023/07/12 02:55:47;;;;;;;0.10;0.10;;;19.20;99.90;;;;;;5039605;28;20021;-81
2023/07/12 02:58:13;;;;;;;0.10;0.10;;;18.40;99.90;;;;;;5039522;28;20039;-79
2023/07/12 03:00:39;;;;;;;0.10;0.10;;;18.30;99.90;;;;;;5039231;28;20400;-75
2023/07/12 03:03:05;;;;;;;0.13;0.13;;;;;;;;;;5039283;28;20063;-78
2023/07/12 03:05:33;;;;;;;0.10;0.10;;;18.30;99.90;;;;;;5039253;28;20017;-75
2023/07/12 03:07:59;;;;;;;0.10;0.10;;;18.30;99.90;;;;;;5037077;28;20124;-74
2023/07/12 03:10:25;;;;;;;3.40;3.10;;;18.40;99.90;;;;;;5037657;28;20745;-75
2023/07/12 03:12:50;;;;;;;2.90;1.85;;;18.40;99.90;;;;;;5037101;28;20025;-73
2023/07/12 03:15:16;;;;;;;0.20;0.20;;;18.40;99.90;;;;;;5036631;28;20029;-82
2023/07/12 03:17:42;;;;;;;0.10;0.10;;;18.50;99.90;;;;;;5035529;28;20021;-84
2023/07/12 03:20:08;;;;;;;1.80;1.75;;;18.40;99.90;;;;;;5037985;28;20061;-80
2023/07/12 03:22:34;;;;;;;0.10;0.10;;;18.30;99.90;;;;;;5039923;28;20100;-75
2023/07/12 03:24:59;;;;;;;0.32;0.32;;;15.90;99.90;;;;;;5042328;28;20430;-87
2023/07/12 03:27:26;;;;;;;0.15;0.15;;;18.40;99.90;;;;;;5041872;28;20677;-89
2023/07/12 03:29:52;;;;;;;0.10;0.10;;;18.40;99.90;;;;;;5043197;28;20451;-75
2023/07/12 03:32:17;;;;;;;0.10;0.10;;;18.30;99.90;;;;;;5042002;28;20017;-75
2023/07/12 03:34:43;;;;;;;0.10;0.10;;;18.20;99.90;;;;;;5041418;28;20047;-90
2023/07/12 03:37:11;;;;;;;0.03;0.03;;;18.30;99.90;;;;;;5045040;28;20254;-75
2023/07/12 03:39:37;;;;;;;0.10;0.10;;;18.30;99.90;;;;;;5042933;28;20040;-77
2023/07/12 03:42:03;;;;;;;0.10;0.10;;;18.20;99.90;;;;;;5045639;28;20013;-92
2023/07/12 03:44:29;;;;;;;0.10;0.10;;;19.30;99.90;;;;;;5049872;28;20717;-80
2023/07/12 03:46:55;;;;;;;0.15;0.15;;;18.70;99.90;;;;;;5046892;28;20024;-89
2023/07/12 03:49:20;;;;;;;0.10;0.10;;;18.80;99.90;;;;;;5044884;28;20047;-84
2023/07/12 03:51:47;;;;;;;1.30;0.90;;;19.00;99.90;;;;;;5043342;28;20051;-76
2023/07/12 03:54:13;;;;;;;1.08;1.02;;;19.40;99.90;;;;;;5041652;28;20102;-74
2023/07/12 03:56:39;;;;;;;0.63;0.63;;;19.10;99.90;;;;;;5041230;28;20100;-79
2023/07/12 03:59:06;;;;;;;0.10;0.10;;;19.00;99.90;;;;;;5039116;28;20140;-74
2023/07/12 04:01:31;;;;;;;0.30;0.30;;;19.00;99.90;;;;;;5039875;28;20040;-80
2023/07/12 04:03:57;;;;;;;3.40;3.10;;;19.70;99.90;;;;;;5039775;28;20770;-79
2023/07/12 04:06:23;;;;;;;0.43;0.43;;;19.50;99.90;;;;;;5040103;28;20100;-73
2023/07/12 04:08:49;;;;;;;1.20;1.10;;;19.40;99.90;;;;;;5040134;28;20663;-76
2023/07/12 04:11:26;;;;;;;0.10;0.10;;;19.00;99.90;;;;;;5040415;28;20672;-79
2023/07/12 04:13:52;;;;;;;0.10;0.10;;;18.80;99.90;;;;;;5040757;28;20031;-75
2023/07/12 04:16:18;;;;;;;2.22;2.10;;;18.50;99.90;;;;;;5038855;28;20025;-88
2023/07/12 04:18:44;;;;;;;0.25;0.25;;;18.40;99.90;;;;;;5041381;28;20527;-87
2023/07/12 04:21:10;;;;;;;0.10;0.10;;;18.40;99.90;;;;;;5040587;28;20029;-74
2023/07/12 04:23:36;;;;;;;1.02;0.95;;;18.30;99.90;;;;;;5039136;28;20036;-73
2023/07/12 04:26:04;;;;;;;1.48;1.48;;;18.30;99.90;;;;;;5039694;28;20048;-73
2023/07/12 04:28:31;;;;;;;0.10;0.10;;;18.30;99.90;;;;;;5040843;28;20025;-91
2023/07/12 04:31:03;;;;;;;0.10;0.10;;;18.20;99.90;;;;;;5041656;28;20029;-78
2023/07/12 04:33:29;;;;;;;0.25;0.25;;;18.10;99.90;;;;;;5040087;28;20108;-84
2023/07/12 04:35:54;;;;;;;0.30;0.30;;;18.10;99.90;;;;;;5039856;28;20096;-79
2023/07/12 04:38:20;;;;;;;0.10;0.10;;;18.10;99.90;;;;;;5040664;28;20119;-87
2023/07/12 04:40:56;;;;;;;0.10;0.10;;;18.10;99.90;;;;;;5040219;28;20087;-74
2023/07/12 04:43:22;;;;;;;0.15;0.15;;;18.20;99.90;;;;;;5038555;28;20033;-76
2023/07/12 04:45:49;;;;;;;0.10;0.10;;;18.10;99.90;;;;;;5039821;28;20009;-76
2023/07/12 04:48:15;;;;;;;0.17;0.17;;;18.20;99.90;;;;;;5038061;28;20108;-73
2023/07/12 04:50:42;;;;;;;0.40;0.40;;;18.30;99.90;;;;;;5039205;28;20090;-77
2023/07/12 04:53:07;;;;;;;0.10;0.10;;;18.40;99.90;;;;;;5038048;28;20032;-89
2023/07/12 04:55:34;;;;;;;0.10;0.10;;;18.50;99.90;;;;;;5038284;28;20029;-80
2023/07/12 04:58:00;;;;;;;0.20;0.20;;;18.70;99.90;;;;;;5039700;28;20110;-89
2023/07/12 05:00:25;;;;;;;1.90;1.85;;;19.10;99.90;;;;;;5039842;28;20029;-73
2023/07/12 05:02:52;;;;;;;0.10;0.10;;;19.10;99.90;;;;;;5039626;28;20684;-75
2023/07/12 05:05:20;;;;;;;0.10;0.10;;;19.40;99.90;;;;;;5038775;28;20025;-74
2023/07/12 05:07:48;;;;;;;0.47;0.47;;;19.60;99.90;;;;;;5040470;28;20127;-85
2023/07/12 05:10:14;;;;;;;0.10;0.10;;;19.80;99.90;;;;;;5038902;28;20028;-73
2023/07/12 05:12:41;;;;;;;0.90;0.68;;;19.80;99.90;;;;;;5039068;28;20013;-74
2023/07/12 05:15:09;;;;;;;0.10;0.10;;;21.20;99.90;;;;;;5039927;28;20036;-86
2023/07/12 05:17:35;;;;;;;0.40;0.40;;;19.80;99.90;;;;;;5039304;28;20009;-91
2023/07/12 05:20:04;;;;;;;0.10;0.10;;;20.10;99.90;;;;;;5039432;28;20056;-84
2023/07/12 05:22:31;;;;;;;0.10;0.10;;;20.40;99.90;;;;;;5039183;28;20021;-77
2023/07/12 05:24:58;;;;;;;0.40;0.40;;;20.60;99.90;;;;;;5038978;28;20113;-74
2023/07/12 05:27:24;;;;;;;0.77;0.77;;;20.70;99.90;;;;;;5037898;28;20388;-73
2023/07/12 05:29:49;;;;;;;0.10;0.10;;;20.90;99.90;;;;;;5039100;28;20031;-83
2023/07/12 05:32:15;;;;;;;0.10;0.10;;;21.00;99.90;;;;;;5039098;28;20614;-74
2023/07/12 05:34:41;;;;;;;1.58;1.55;;;21.20;99.90;;;;;;5037986;28;20056;-73
2023/07/12 05:37:08;;;;;;;0.63;0.63;;;21.20;99.90;;;;;;5037029;28;20638;-74
2023/07/12 05:39:34;;;;;;;0.10;0.10;;;21.50;99.90;;;;;;5038448;28;20037;-80
2023/07/12 05:41:59;;;;;;;0.10;0.10;;;21.70;99.90;;;;;;5038801;28;20036;-74
2023/07/12 05:44:25;;;;;;;0.10;0.10;;;21.90;99.90;;;;;;5038362;28;20051;-74
2023/07/12 05:46:51;;;;;;;0.55;0.55;;;23.50;99.90;;;;;;5036915;28;20116;-73
2023/07/12 05:49:17;;;;;;;0.10;0.10;;;22.20;99.90;;;;;;5038044;28;20074;-78
2023/07/12 05:51:44;;;;;;;0.10;0.10;;;22.10;99.90;;;;;;5037775;28;20067;-73
2023/07/12 05:54:09;;;;;;;0.10;0.10;;;22.50;99.90;;;;;;5037913;28;20025;-80
2023/07/12 05:56:35;;;;;;;0.52;0.52;;;22.20;99.90;;;;;;5038106;28;20614;-80
2023/07/12 05:59:01;;;;;;;0.52;0.52;;;22.30;99.90;;;;;;5037786;28;20076;-82
2023/07/12 06:01:27;;;;;;;0.28;0.28;;;22.40;99.90;;;;;;5038060;28;20021;-73
2023/07/12 06:03:53;;;;;;;0.20;0.20;;;22.50;99.90;;;;;;5036733;28;20068;-74
2023/07/12 06:06:19;;;;;;;0.40;0.40;;;22.60;99.90;;;;;;5037767;28;20025;-73
2023/07/12 06:08:45;;;;;;;0.35;0.35;;;22.60;99.90;;;;;;5037371;28;20025;-73
2023/07/12 06:11:11;;;;;;;0.10;0.10;;;22.80;99.90;;;;;;5037582;28;20104;-74
2023/07/12 06:13:37;;;;;;;0.10;0.10;;;23.00;99.90;;;;;;5038299;28;20021;-74
2023/07/12 06:16:03;;;;;;;0.25;0.25;;;23.10;99.90;;;;;;5039101;28;20075;-73
2023/07/12 06:18:30;;;;;;;2.65;2.05;;;23.20;99.90;;;;;;5047141;28;20068;-73
2023/07/12 06:20:58;;;;;;;0.17;0.17;;;23.30;99.90;;;;;;5044880;28;20043;-72
2023/07/12 06:23:24;;;;;;;0.20;0.20;;;23.40;99.90;;;;;;5042861;28;20045;-73
2023/07/12 06:25:51;;;;;;;0.68;0.55;;;23.50;99.90;;;;;;5045953;28;20048;-73
2023/07/12 06:28:17;;;;;;;0.20;0.20;;;23.40;99.90;;;;;;5050789;28;20046;-72
2023/07/12 06:30:43;;;;;;;0.10;0.10;;;23.30;99.90;;;;;;5063264;28;20054;-75
2023/07/12 06:33:12;;;;;;;0.17;0.17;;;23.50;99.90;;;;;;5065215;28;20024;-86
2023/07/12 06:35:39;;;;;;;0.10;0.10;;;24.20;99.90;;;;;;5066987;28;20549;-76
2023/07/12 06:38:05;;;;;;;0.10;0.10;;;24.00;99.90;;;;;;5065647;28;20021;-78
2023/07/12 06:40:31;;;;;;;0.43;0.43;;;24.20;99.90;;;;;;5065549;28;20027;-80
2023/07/12 06:42:57;;;;;;;0.10;0.10;;;24.00;99.90;;;;;;5059532;28;20017;-82
2023/07/12 06:45:22;;;;;;;4.18;1.15;;;24.10;99.90;;;;;;5059494;28;20024;-78
2023/07/12 06:47:48;;;;;;;0.20;0.20;;;24.10;99.90;;;;;;5057875;28;20017;-91
2023/07/12 06:50:14;;;;;;;1.10;1.10;;;24.20;99.90;;;;;;5057597;28;20028;-74
2023/07/12 06:52:40;;;;;;;0.45;0.45;;;24.40;99.90;;;;;;5041949;28;20051;-75
2023/07/12 06:55:06;;;;;;;2.00;1.20;;;24.40;99.90;;;;;;5036661;28;20028;-78
2023/07/12 06:57:34;;;;;;;0.10;0.10;;;24.50;99.90;;;;;;5038142;28;20060;-74
2023/07/12 07:00:04;;;;;;;0.00;0.00;;;24.50;99.90;;;;;;5040528;28;20104;-78
2023/07/12 07:02:30;;;;;;;1.02;0.17;;;24.70;99.90;;;;;;5039141;28;20052;-74
2023/07/12 07:04:56;;;;;;;0.13;0.13;;;24.80;99.90;;;;;;5040797;28;20158;-74
2023/07/12 07:07:21;;;;;;;0.17;0.17;;;24.90;99.90;;;;;;5040472;28;20040;-74
2023/07/12 07:09:47;;;;;;;0.10;0.10;;;25.00;99.90;;;;;;5039140;28;20043;-77
2023/07/12 07:12:13;;;;;;;0.10;0.10;;;25.10;99.90;;;;;;5039072;28;20025;-75
2023/07/12 07:14:50;;;;;;;0.00;0.00;;;25.20;99.90;;;;;;5038899;28;20030;-75
2023/07/12 07:17:16;;;;;;;0.20;0.20;;;25.30;99.90;;;;;;5039555;28;20013;-74
2023/07/12 07:19:42;;;;;;;0.30;0.30;;;25.50;99.90;;;;;;5040177;28;20029;-79
2023/07/12 07:22:08;;;;;;;0.30;0.20;;;25.60;99.90;;;;;;5040860;28;20060;-77
2023/07/12 07:24:33;;;;;;;0.10;0.10;;;25.80;99.90;;;;;;5040832;28;20043;-73
2023/07/12 07:26:59;;;;;;;0.00;0.00;;;25.90;99.90;;;;;;5040124;28;20028;-83
2023/07/12 07:29:25;;;;;;;0.10;0.10;;;26.00;99.90;;;;;;5041250;28;20013;-75
2023/07/12 07:31:51;;;;;;;0.00;0.00;;;26.20;99.90;;;;;;5040795;28;20723;-83
2023/07/12 07:34:17;;;;;;;2.17;1.52;;;26.30;99.90;;;;;;5042278;28;20017;-88
2023/07/12 07:36:43;;;;;;;0.80;0.80;;;28.80;99.90;;;;;;5041311;28;20575;-74
2023/07/12 07:39:09;;;;;;;0.22;0.22;;;26.60;99.90;;;;;;5039703;28;20094;-74
2023/07/12 07:41:34;;;;;;;0.57;0.52;;;26.70;99.60;;;;;;5040131;28;20686;-74
2023/07/12 07:44:00;;;;;;;0.00;0.00;;;26.80;99.50;;;;;;5039530;28;20017;-73
2023/07/12 07:46:26;;;;;;;0.28;0.28;;;27.00;98.90;;;;;;5038308;28;20987;-73
2023/07/12 07:48:52;;;;;;;0.63;0.50;;;27.20;98.10;;;;;;5042693;28;20021;-74
2023/07/12 07:51:18;;;;;;;0.30;0.30;;;27.20;97.90;;;;;;5040845;28;20021;-80
2023/07/12 07:53:44;;;;;;;1.33;1.23;;;27.20;98.20;;;;;;5039652;28;21541;-76
2023/07/12 07:56:11;;;;;;;0.05;0.05;;;27.40;97.50;;;;;;5041688;28;20058;-80
2023/07/12 07:58:37;;;;;;;0.85;0.63;;;27.50;97.20;;;;;;5040474;28;20093;-82
2023/07/12 08:01:04;;;;;;;0.95;0.85;;;27.70;96.70;;;;;;5042015;28;20675;-80
2023/07/12 08:03:31;;;;;;;0.30;0.30;;;27.80;96.60;;;;;;5040762;28;20024;-75
2023/07/12 08:06:23;;;;;;;0.10;0.10;;;27.90;96.00;;;;;;5040034;28;20105;-76
2023/07/12 08:08:52;;;;;;;0.10;0.10;;;27.30;95.20;;;;;;5032985;28;20053;-76
2023/07/12 08:11:21;;;;;;;0.25;0.25;;;28.50;94.50;;;;;;5035390;28;20032;-76
2023/07/12 08:13:58;;;;;;;0.20;0.10;;;25.80;93.40;;;;;;5032570;28;20663;-77
2023/07/12 08:16:49;;;;;;;0.38;0.38;;;28.10;94.40;;;;;;5032456;28;20021;-78
2023/07/12 08:19:16;;;;;;;0.28;0.28;;;28.80;94.20;;;;;;5035149;28;20064;-74
2023/07/12 08:21:42;;;;;;;0.05;0.05;;;29.00;94.10;;;;;;5029303;28;20020;-75
2023/07/12 08:24:08;;;;;;;0.00;0.00;;;29.00;91.90;;;;;;5032049;28;20100;-76
2023/07/12 08:26:33;;;;;;;0.13;0.13;;;29.30;91.30;;;;;;5026647;28;20221;-77
2023/07/12 08:28:59;;;;;;;0.10;0.10;;;29.60;90.90;;;;;;5031068;28;20013;-75
2023/07/12 08:31:28;;;;;;;0.10;0.10;;;29.40;90.00;;;;;;5025502;28;20719;-76
2023/07/12 08:33:56;;;;;;;1.55;1.45;;;30.80;91.40;;;;;;5026686;28;20045;-76
2023/07/12 08:36:28;;;;;;;0.40;0.40;;;29.80;90.80;;;;;;5034198;28;20013;-75
2023/07/12 08:38:56;;;;;;;0.00;0.00;;;29.50;89.30;;;;;;5028150;28;20087;-79
2023/07/12 08:41:24;;;;;;;0.00;0.00;;;30.50;90.70;;;;;;5035512;28;20033;-82
2023/07/12 08:43:52;;;;;;;0.25;0.25;;;30.00;89.50;;;;;;5036961;28;20031;-81
2023/07/12 08:46:24;;;;;;;0.08;0.08;;;30.40;88.40;;;;;;5030860;28;20057;-74
2023/07/12 08:48:57;;;;;;;0.00;0.00;;;30.30;87.90;;;;;;5035833;28;20044;-80
2023/07/12 08:51:43;;;;;;;1.27;1.17;;;30.60;86.80;;;;;;5036800;28;20029;-78
2023/07/12 08:54:25;;;;;;;0.00;0.00;;;30.70;86.10;;;;;;5027827;28;20661;-73
2023/07/12 08:57:23;;;;;;;0.15;0.15;;;31.10;86.70;;;;;;5030041;28;20017;-84
2023/07/12 09:00:19;;;;;;;0.10;0.10;;;30.90;85.70;;;;;;5039110;28;20040;-80
2023/07/12 09:02:45;;;;;;;2.42;1.05;;;31.20;85.70;;;;;;5039661;28;20088;-84
2023/07/12 09:05:19;;;;;;;3.25;0.90;;;31.40;86.90;;;;;;5039377;28;20104;-85
2023/07/12 09:08:11;;;;;;;0.10;0.10;;;31.30;85.10;;;;;;5038077;28;20028;-80
2023/07/12 09:10:45;;;;;;;0.90;0.35;;;31.60;85.90;;;;;;5025279;28;20029;-81
2023/07/12 09:13:12;;;;;;;0.40;0.25;;;31.40;85.60;;;;;;5020145;28;20521;-75
2023/07/12 09:15:49;;;;;;;3.42;2.78;;;31.60;83.80;;;;;;5022208;28;20020;-76
2023/07/12 09:18:36;;;;;;;0.15;0.15;;;29.30;81.80;;;;;;5038549;28;20040;-76
2023/07/12 09:21:14;;;;;;;1.35;0.65;;;31.90;83.50;;;;;;5037636;28;20017;-80
2023/07/12 09:23:42;;;;;;;0.25;0.25;;;32.20;83.60;;;;;;5038104;28;20016;-76
2023/07/12 09:26:28;;;;;;;0.30;0.30;;;32.30;81.50;;;;;;5033677;28;20056;-76
2023/07/12 09:28:58;;;;;;;0.50;0.50;;;32.40;80.40;;;;;;5035298;28;20029;-82
2023/07/12 09:31:29;;;;;;;0.10;0.10;;;32.20;80.20;;;;;;5038291;28;20017;-76
2023/07/12 09:33:58;;;;;;;0.68;0.45;;;32.20;80.70;;;;;;5037151;28;20104;-79
2023/07/12 09:36:24;;;;;;;0.10;0.10;;;32.00;80.10;;;;;;5037079;28;20025;-80
2023/07/12 09:38:50;;;;;;;0.52;0.32;;;32.20;81.50;;;;;;5038143;28;20040;-75
2023/07/12 09:41:19;;;;;;;0.15;0.15;;;32.40;82.00;;;;;;5036216;28;20652;-76
2023/07/12 09:43:52;;;;;;;0.43;0.15;;;32.40;80.10;;;;;;5037049;28;20021;-76
2023/07/12 09:46:36;;;;;;;;;;;32.50;79.40;;;;;;5036846;28;20032;-76
2023/07/12 09:49:19;;;;;;;0.20;0.20;;;32.70;78.30;;;;;;5033136;28;19909;-74
2023/07/12 09:51:53;;;;;;;0.82;0.82;;;32.70;78.70;;;;;;5038273;28;20017;-82
2023/07/12 09:54:27;;;;;;;0.40;0.40;;;32.70;79.10;;;;;;5038479;28;20044;-76
2023/07/12 09:57:02;;;;;;;0.90;0.90;;;32.70;79.20;;;;;;5036672;28;20047;-79
2023/07/12 09:59:37;;;;;;;0.10;0.10;;;33.30;78.60;;;;;;5033507;28;20037;-74
2023/07/12 10:02:25;;;;;;;0.35;0.35;;;33.00;77.40;;;;;;5030690;28;20083;-76
2023/07/12 10:04:59;;;;;;;0.85;0.47;;;33.10;75.90;;;;;;5038647;28;20034;-77
2023/07/12 10:07:52;;;;;;;0.35;0.25;;;34.30;76.80;;;;;;5037639;28;20159;-76
2023/07/12 10:10:21;;;;;;;0.17;0.17;;;33.30;75.70;;;;;;5036150;28;20095;-76
2023/07/12 10:12:59;;;;;;;0.40;0.40;;;33.40;76.10;;;;;;5037738;28;20082;-79
2023/07/12 10:15:31;;;;;;;1.35;1.13;;;33.60;75.60;;;;;;5037010;28;20017;-79
2023/07/12 10:17:58;;;;;;;1.98;0.60;;;33.60;73.60;;;;;;5040152;28;20033;-85
2023/07/12 10:20:24;;;;;;;0.75;0.38;;;33.50;74.20;;;;;;5039000;28;20037;-82
2023/07/12 10:22:53;;;;;;;5.18;2.75;;;33.60;74.60;;;;;;5042566;28;20005;-81
2023/07/12 10:25:26;;;;;;;1.85;0.45;;;33.70;74.40;;;;;;5040271;28;20021;-78
2023/07/12 10:28:11;;;;;;;0.98;0.98;;;31.90;71.50;;;;;;5027194;28;20032;-77
2023/07/12 10:30:39;;;;;;;0.35;0.30;;;34.20;75.10;;;;;;5023920;28;20018;-87
2023/07/12 10:33:24;;;;;;;0.40;0.30;;;34.40;72.90;;;;;;5037191;28;20051;-80
2023/07/12 10:35:59;;;;;;;0.20;0.20;;;34.60;74.70;;;;;;5055025;28;20048;-75
2023/07/12 10:38:25;;;;;;;0.70;0.70;;;34.60;73.30;;;;;;5045172;28;20098;-74
2023/07/12 10:41:13;;;;;;;0.68;0.55;;;34.70;73.40;;;;;;5040615;28;20055;-75
2023/07/12 10:43:48;;;;;;;0.17;0.17;;;34.70;73.30;;;;;;5041591;28;20013;-79
2023/07/12 10:46:37;;;;;;;1.15;1.00;;;34.80;72.60;;;;;;5042551;28;20177;-86
2023/07/12 10:49:11;;;;;;;3.85;2.38;;;34.90;73.80;;;;;;5036800;28;20029;-82
2023/07/12 10:51:57;;;;;;;1.15;0.57;;;35.00;73.50;;;;;;5042080;28;20025;-78
2023/07/12 10:54:31;;;;;;;0.75;0.52;;;35.90;74.80;;;;;;5042177;28;20035;-87
2023/07/12 10:57:05;;;;;;;0.52;0.52;;;34.50;74.30;;;;;;5038810;28;20025;-75
2023/07/12 10:59:31;;;;;;;0.30;0.20;;;34.50;74.20;;;;;;5039672;28;20073;-75
2023/07/12 11:02:20;;;;;;;0.20;0.20;;;34.60;74.50;;;;;;5039696;28;20029;-75
2023/07/12 11:04:47;;;;;;;0.80;0.57;;;35.00;75.10;;;;;;5022464;28;20025;-81
2023/07/12 11:07:14;;;;;;;0.10;0.10;;;35.30;73.70;;;;;;5025992;28;20013;-89
2023/07/12 11:09:46;;;;;;;17.17;1.17;;;35.40;72.40;;;;;;5039656;28;20021;-84
2023/07/12 11:12:13;;;;;;;0.57;0.57;;;35.20;72.40;;;;;;5039446;28;20037;-80
2023/07/12 11:14:47;;;;;;;0.10;0.10;;;35.20;72.50;;;;;;5038033;28;20025;-78
2023/07/12 11:17:25;;;;;;;0.73;0.73;;;37.30;74.30;;;;;;5034616;28;20151;-76
2023/07/12 11:20:22;;;;;;;0.32;0.32;;;35.30;72.70;;;;;;5032684;28;20086;-80
2023/07/12 11:22:52;;;;;;;0.35;0.32;;;35.30;71.90;;;;;;4989511;28;20074;-86
2023/07/12 11:25:40;;;;;;;0.68;0.68;;;35.30;72.50;;;;;;4993556;28;20033;-84
2023/07/12 11:28:43;;;;;;;1.23;0.52;;;35.20;72.20;;;;;;4996291;28;20034;-82
2023/07/12 11:31:29;;;;;;;0.60;0.60;;;35.30;72.30;;;;;;4980667;28;20061;-83
2023/07/12 11:34:10;;;;;;;0.32;0.20;;;35.40;72.10;;;;;;4992824;28;20087;-76
2023/07/12 11:36:36;;;;;;;0.82;0.60;;;35.50;72.00;;;;;;4997018;28;20220;-79
2023/07/12 11:39:11;;;;;;;0.95;0.63;;;35.80;71.10;;;;;;5006854;28;20819;-80
2023/07/12 11:41:37;;;;;;;0.43;0.43;;;35.80;70.90;;;;;;5002170;28;20033;-79
2023/07/12 11:44:32;;;;;;;0.52;0.28;;;33.70;69.30;;;;;;5001646;28;20033;-88
2023/07/12 11:47:21;;;;;;;0.20;0.20;;;36.90;71.40;;;;;;4999650;28;20038;-84
2023/07/12 11:49:55;;;;;;;0.32;0.32;;;39.50;72.10;;;;;;4979087;28;20061;-82
2023/07/12 11:52:21;;;;;;;0.40;0.40;;;37.40;69.30;;;;;;4998665;28;20042;-74
2023/07/12 11:54:48;;;;;;;0.77;0.50;;;37.60;69.30;;;;;;5005984;28;20108;-81
2023/07/12 11:57:16;;;;;;;1.00;0.30;;;38.10;69.10;;;;;;4997306;28;20072;-75
2023/07/12 11:59:45;;;;;;;0.30;0.30;;;39.00;70.40;;;;;;5013220;28;20692;-73
2023/07/12 12:02:18;;;;;;;1.30;0.38;;;39.00;66.80;;;;;;5019601;28;20104;-73
2023/07/12 12:04:49;;;;;;;0.38;0.35;;;36.90;65.50;;;;;;5020938;28;20017;-75
2023/07/12 12:07:20;;;;;;;;;;;39.70;66.10;;;;;;5021519;28;20014;-75
2023/07/12 12:09:47;;;;;;;2.97;1.10;;;39.90;65.30;;;;;;5036878;28;19908;-75
2023/07/12 12:12:19;;;;;;;0.95;0.70;;;40.30;64.80;;;;;;5039245;28;20156;-74
2023/07/12 12:14:48;;;;;;;0.20;0.20;;;40.40;65.20;;;;;;5040626;28;20681;-72
2023/07/12 12:17:26;;;;;;;0.90;0.50;;;40.70;63.70;;;;;;5039740;28;20086;-77
2023/07/12 12:20:20;;;;;;;9.50;0.60;;;40.40;64.00;;;;;;5039269;28;20109;-74
2023/07/12 12:22:56;;;;;;;1.23;1.15;;;40.30;63.90;;;;;;5039762;28;20017;-76
2023/07/12 12:25:30;;;;;;;1.17;0.85;;;40.70;63.20;;;;;;5039083;28;20032;-76
2023/07/12 12:27:56;;;;;;;0.43;0.30;;;40.50;63.20;;;;;;5039516;28;20017;-73
2023/07/12 12:30:29;;;;;;;1.08;0.50;;;40.20;63.60;;;;;;5037546;28;20017;-74
2023/07/12 12:33:04;;;;;;;0.40;0.40;;;40.00;64.30;;;;;;5021226;28;20067;-72
2023/07/12 12:35:31;;;;;;;0.93;0.63;;;39.50;63.90;;;;;;5036841;28;20025;-77
2023/07/12 12:38:11;;;;;;;2.13;1.38;;;39.00;64.70;;;;;;5025964;28;20580;-79
2023/07/12 12:40:46;;;;;;;0.65;0.47;;;39.10;64.10;;;;;;5036210;28;20507;-78
2023/07/12 12:43:18;;;;;;;0.30;0.30;;;39.40;64.20;;;;;;5035624;28;20660;-75
2023/07/12 12:45:44;;;;;;;0.52;0.52;;;39.70;63.50;;;;;;5042237;28;20028;-75
2023/07/12 12:48:13;;;;;;;0.20;0.20;;;39.60;64.60;;;;;;5038344;28;20017;-73
2023/07/12 12:50:39;;;;;;;0.47;0.47;;;39.50;63.10;;;;;;5039322;28;20108;-76
2023/07/12 12:53:09;;;;;;;1.27;0.75;;;39.60;62.70;;;;;;5038739;28;20033;-80
2023/07/12 12:55:36;;;;;;;0.50;0.50;;;40.20;63.40;;;;;;5039326;28;20040;-74
2023/07/12 12:58:02;;;;;;;0.45;0.40;;;39.40;63.00;;;;;;5038837;28;20044;-83
2023/07/12 13:00:28;;;;;;;0.20;0.20;;;39.40;62.50;;;;;;5037619;28;20090;-75
2023/07/12 13:02:54;;;;;;;0.60;0.60;;;39.30;62.20;;;;;;5037617;28;20021;-80